createdAt,value
2019-02-23T00:01:54.295Z,101758.44
2019-02-23T00:04:25.541Z,101760.50
2019-02-23T00:06:57.214Z,101765.86
2019-02-23T00:09:29.366Z,101765.67
2019-02-23T00:12:01.443Z,101775.75
2019-02-23T00:14:34.217Z,101777.81
2019-02-23T00:17:09.559Z,101782.87
2019-02-23T00:19:41.518Z,101774.76
2019-02-23T00:22:13.196Z,101773.17
2019-02-23T00:24:44.633Z,101783.55
2019-02-23T00:27:16.279Z,101784.05
2019-02-23T00:29:47.944Z,101789.09
2019-02-23T00:32:19.597Z,101797.73
2019-02-23T00:34:51.553Z,101801.91
2019-02-23T00:37:23.115Z,101806.17
2019-02-23T00:39:54.883Z,101797.10
2019-02-23T00:42:26.507Z,101812.05
2019-02-23T00:44:58.060Z,101817.85
2019-02-23T00:47:29.826Z,101809.14
2019-02-23T00:50:01.384Z,101822.48
2019-02-23T00:52:33.558Z,101824.64
2019-02-23T00:55:06.261Z,101829.06
2019-02-23T00:57:37.678Z,101830.42
2019-02-23T01:00:11.326Z,101826.51
2019-02-23T01:02:43.236Z,101830.29
2019-02-23T01:05:15.098Z,101836.09
2019-02-23T01:07:46.756Z,101828.60
2019-02-23T01:10:19.769Z,101836.66
2019-02-23T01:12:51.393Z,101835.25
2019-02-23T01:15:22.942Z,101839.02
2019-02-23T01:17:56.651Z,101832.81
2019-02-23T01:20:28.019Z,101846.38
2019-02-23T01:22:59.648Z,101847.53
2019-02-23T01:25:31.019Z,101849.91
2019-02-23T01:28:02.459Z,101855.24
2019-02-23T01:30:34.322Z,101868.25
2019-02-23T01:33:06.681Z,101866.63
2019-02-23T01:35:40.285Z,101868.77
2019-02-23T01:38:11.824Z,101870.68
2019-02-23T01:40:44.626Z,101877.30
2019-02-23T01:43:17.086Z,101878.68
2019-02-23T01:45:48.441Z,101885.02
2019-02-23T01:48:19.988Z,101886.16
2019-02-23T01:50:53.387Z,101883.39
2019-02-23T01:53:25.448Z,101885.59
2019-02-23T01:55:56.806Z,101895.53
2019-02-23T01:58:28.354Z,101904.15
2019-02-23T02:01:00.207Z,101911.09
2019-02-23T02:03:32.032Z,101911.27
2019-02-23T02:06:03.521Z,101921.12
2019-02-23T02:08:35.313Z,101920.23
2019-02-23T02:11:06.834Z,101935.27
2019-02-23T02:13:38.890Z,101938.39
2019-02-23T02:16:10.448Z,101938.56
2019-02-23T02:18:42.213Z,101942.60
2019-02-23T02:21:13.543Z,101942.66
2019-02-23T02:23:45.417Z,101947.08
2019-02-23T02:26:16.970Z,101957.07
2019-02-23T02:28:48.722Z,101956.63
2019-02-23T02:31:20.293Z,101955.97
2019-02-23T02:34:09.019Z,101969.41
2019-02-23T02:36:40.385Z,101970.97
2019-02-23T02:39:13.180Z,101970.08
2019-02-23T02:41:44.615Z,101974.55
2019-02-23T02:44:16.465Z,101982.61
2019-02-23T02:46:47.917Z,101984.34
2019-02-23T02:49:19.688Z,101979.25
2019-02-23T02:51:51.435Z,101986.31
2019-02-23T02:54:24.114Z,101990.09
2019-02-23T02:56:55.673Z,101985.30
2019-02-23T02:59:27.546Z,101993.34
2019-02-23T03:01:59.101Z,101997.59
2019-02-23T03:04:31.694Z,102005.02
2019-02-23T03:07:03.198Z,102007.63
2019-02-23T03:09:34.643Z,102011.89
2019-02-23T03:12:05.897Z,102013.78
2019-02-23T03:14:37.351Z,102023.50
2019-02-23T03:17:08.591Z,102028.02
2019-02-23T03:19:40.142Z,102016.42
2019-02-23T03:22:11.383Z,102024.05
2019-02-23T03:24:42.935Z,102025.69
2019-02-23T03:27:14.293Z,102032.12
2019-02-23T03:29:45.834Z,102030.03
2019-02-23T03:32:17.187Z,102032.84
2019-02-23T03:34:49.867Z,102041.40
2019-02-23T03:37:21.210Z,102033.89
2019-02-23T03:39:52.559Z,102049.55
2019-02-23T03:42:24.110Z,102047.13
2019-02-23T03:44:55.570Z,102048.98
2019-02-23T03:47:27.118Z,102054.33
2019-02-23T03:49:58.459Z,102049.02
2019-02-23T03:52:29.702Z,102057.73
2019-02-23T03:55:01.361Z,102054.73
2019-02-23T03:57:32.719Z,102056.14
2019-02-23T04:00:04.061Z,102056.91
2019-02-23T04:02:37.082Z,102066.70
2019-02-23T04:05:08.394Z,102067.02
2019-02-23T04:07:39.736Z,102063.09
2019-02-23T04:10:10.983Z,102066.43
2019-02-23T04:12:42.437Z,102065.02
2019-02-23T04:15:13.581Z,102071.16
2019-02-23T04:17:45.028Z,102077.00
2019-02-23T04:20:16.273Z,102070.10
2019-02-23T04:22:47.718Z,102076.16
2019-02-23T04:25:18.964Z,102083.33
2019-02-23T04:27:50.420Z,102085.61
2019-02-23T04:30:22.896Z,102088.11
2019-02-23T04:32:54.266Z,102099.33
2019-02-23T04:35:25.693Z,102101.56
2019-02-23T04:37:57.037Z,102103.58
2019-02-23T04:40:28.185Z,102107.36
2019-02-23T04:42:59.641Z,102109.56
2019-02-23T04:45:30.774Z,102118.72
2019-02-23T04:48:03.457Z,102123.69
2019-02-23T04:50:34.911Z,102123.03
2019-02-23T04:53:06.464Z,102130.73
2019-02-23T04:55:37.600Z,102137.69
2019-02-23T04:58:08.947Z,102134.91
2019-02-23T05:00:40.617Z,102138.20
2019-02-23T05:03:12.305Z,102147.37
2019-02-23T05:05:43.500Z,102143.09
2019-02-23T05:08:14.954Z,102150.86
2019-02-23T05:10:46.608Z,102146.33
2019-02-23T05:13:18.051Z,102158.77
2019-02-23T05:15:49.612Z,102162.26
2019-02-23T05:18:21.015Z,102159.69
2019-02-23T05:20:52.506Z,102163.41
2019-02-23T05:23:23.853Z,102170.70
2019-02-23T05:25:54.995Z,102166.93
2019-02-23T05:28:26.462Z,102170.80
2019-02-23T05:30:58.005Z,102174.31
2019-02-23T05:33:29.248Z,102173.00
2019-02-23T05:36:10.333Z,102172.34
2019-02-23T05:38:43.005Z,102174.48
2019-02-23T05:41:14.557Z,102178.91
2019-02-23T05:43:45.802Z,102183.19
2019-02-23T05:46:17.311Z,102183.44
2019-02-23T05:48:50.033Z,102187.59
2019-02-23T05:51:21.385Z,102186.00
2019-02-23T05:53:53.338Z,102193.81
2019-02-23T05:56:24.598Z,102188.76
2019-02-23T05:58:56.116Z,102196.02
2019-02-23T06:01:27.651Z,102195.95
2019-02-23T06:03:59.045Z,102204.89
2019-02-23T06:06:30.691Z,102215.22
2019-02-23T06:09:02.251Z,102210.97
2019-02-23T06:11:34.770Z,102214.33
2019-02-23T06:14:06.726Z,102219.98
2019-02-23T06:16:38.034Z,102213.11
2019-02-23T06:19:09.585Z,102224.35
2019-02-23T06:21:53.054Z,102224.06
2019-02-23T06:24:13.914Z,102225.14
2019-02-23T06:26:45.376Z,102234.78
2019-02-23T06:29:16.719Z,102234.88
2019-02-23T06:31:48.268Z,102228.62
2019-02-23T06:34:19.822Z,102231.52
2019-02-23T06:36:51.367Z,102238.95
2019-02-23T06:39:22.721Z,102242.33
2019-02-23T06:41:54.070Z,102250.29
2019-02-23T06:44:25.827Z,102244.64
2019-02-23T06:46:58.204Z,102248.70
2019-02-23T06:49:29.757Z,102248.09
2019-02-23T06:52:04.290Z,102250.08
2019-02-23T06:54:34.088Z,102248.39
2019-02-23T06:57:05.645Z,102244.81
2019-02-23T06:59:37.976Z,102247.66
2019-02-23T07:02:09.795Z,102242.41
2019-02-23T07:04:42.133Z,102258.19
2019-02-23T07:07:13.611Z,102258.45
2019-02-23T07:09:45.162Z,102265.38
2019-02-23T07:12:18.122Z,102261.77
2019-02-23T07:14:49.780Z,102259.97
2019-02-23T07:17:21.254Z,102266.55
2019-02-23T07:19:52.989Z,102255.80
2019-02-23T07:22:24.642Z,102256.66
2019-02-23T07:24:55.891Z,102262.13
2019-02-23T07:27:27.440Z,102266.52
2019-02-23T07:29:58.791Z,102262.50
2019-02-23T07:32:30.446Z,102265.34
2019-02-23T07:35:01.692Z,102259.17
2019-02-23T07:37:33.041Z,102278.77
2019-02-23T07:40:07.147Z,102272.16
2019-02-23T07:42:38.710Z,102278.72
2019-02-23T07:45:10.857Z,102289.59
2019-02-23T07:47:43.237Z,102284.85
2019-02-23T07:50:15.669Z,102288.10
2019-02-23T07:52:47.269Z,102286.06
2019-02-23T07:55:18.723Z,102300.69
2019-02-23T07:57:50.167Z,102296.67
2019-02-23T08:00:21.720Z,102293.28
2019-02-23T08:02:53.447Z,102297.36
2019-02-23T08:05:24.947Z,102295.11
2019-02-23T08:07:56.592Z,102294.32
2019-02-23T08:10:28.031Z,102299.44
2019-02-23T08:12:59.502Z,102312.64
2019-02-23T08:15:30.618Z,102303.68
2019-02-23T08:18:02.075Z,102322.20
2019-02-23T08:20:33.421Z,102318.48
2019-02-23T08:23:06.002Z,102323.95
2019-02-23T08:25:37.143Z,102310.42
2019-02-23T08:28:08.815Z,102314.19
2019-02-23T08:30:40.353Z,102318.34
2019-02-23T08:33:11.591Z,102324.04
2019-02-23T08:35:42.944Z,102326.15
2019-02-23T08:38:14.704Z,102323.50
2019-02-23T08:40:46.060Z,102333.16
2019-02-23T08:43:17.394Z,102325.44
2019-02-23T08:45:48.942Z,102326.66
2019-02-23T08:48:20.506Z,102328.61
2019-02-23T08:50:52.056Z,102329.70
2019-02-23T08:53:23.853Z,102350.30
2019-02-23T08:55:55.052Z,102339.41
2019-02-23T08:58:26.515Z,102337.48
2019-02-23T09:00:57.020Z,102335.05
2019-02-23T09:03:28.188Z,102330.63
2019-02-23T09:05:59.533Z,102334.25
2019-02-23T09:08:30.872Z,102348.89
2019-02-23T09:11:02.452Z,102336.83
2019-02-23T09:13:35.416Z,102347.50
2019-02-23T09:16:06.458Z,102342.00
2019-02-23T09:18:38.036Z,102343.99
2019-02-23T09:21:10.596Z,102348.58
2019-02-23T09:23:42.027Z,102344.64
2019-02-23T09:26:13.702Z,102350.18
2019-02-23T09:28:45.236Z,102352.83
2019-02-23T09:31:16.376Z,102346.61
2019-02-23T09:33:47.562Z,102343.03
2019-02-23T09:36:19.289Z,102348.68
2019-02-23T09:38:50.940Z,102342.66
2019-02-23T09:41:22.491Z,102338.84
2019-02-23T09:43:54.038Z,102346.98
2019-02-23T09:46:25.492Z,102347.07
2019-02-23T09:48:57.247Z,102348.17
2019-02-23T09:51:28.488Z,102354.84
2019-02-23T09:54:00.391Z,102347.52
2019-02-23T09:56:31.598Z,102344.06
2019-02-23T09:59:03.048Z,102355.86
2019-02-23T10:01:36.096Z,102351.97
2019-02-23T10:04:07.385Z,102348.81
2019-02-23T10:06:38.845Z,102346.38
2019-02-23T10:09:10.390Z,102350.97
2019-02-23T10:11:41.836Z,102353.52
2019-02-23T10:14:13.085Z,102354.45
2019-02-23T10:16:44.739Z,102352.55
2019-02-23T10:19:16.192Z,102342.69
2019-02-23T10:21:49.793Z,102349.97
2019-02-23T10:24:21.138Z,102358.70
2019-02-23T10:26:52.691Z,102351.69
2019-02-23T10:29:24.165Z,102350.36
2019-02-23T10:31:55.898Z,102355.54
2019-02-23T10:34:27.365Z,102362.81
2019-02-23T10:36:58.921Z,102358.14
2019-02-23T10:39:31.383Z,102377.39
2019-02-23T10:42:02.827Z,102349.51
2019-02-23T10:44:34.408Z,102355.23
2019-02-23T10:47:09.721Z,102366.64
2019-02-23T10:49:41.271Z,102375.74
2019-02-23T10:52:13.231Z,102353.71
2019-02-23T10:54:47.066Z,102356.09
2019-02-23T10:57:17.354Z,102355.92
2019-02-23T10:59:49.427Z,102360.32
2019-02-23T11:02:21.260Z,102363.55
2019-02-23T11:04:52.526Z,102365.59
2019-02-23T11:07:24.299Z,102358.66
2019-02-23T11:09:55.789Z,102354.95
2019-02-23T11:12:27.290Z,102360.98
2019-02-23T11:14:57.855Z,102356.86
2019-02-23T11:17:28.973Z,102360.75
2019-02-23T11:20:00.391Z,102359.41
2019-02-23T11:22:32.271Z,102360.50
2019-02-23T11:25:03.824Z,102365.58
2019-02-23T11:27:35.097Z,102370.88
2019-02-23T11:30:12.396Z,102370.38
2019-02-23T11:32:43.596Z,102370.45
2019-02-23T11:35:17.603Z,102374.55
2019-02-23T11:37:49.276Z,102373.84
2019-02-23T11:40:23.326Z,102364.67
2019-02-23T11:42:53.710Z,102374.23
2019-02-23T11:45:26.789Z,102363.88
2019-02-23T11:47:58.136Z,102364.71
2019-02-23T11:50:29.785Z,102365.49
2019-02-23T11:53:01.802Z,102371.06
2019-02-23T11:55:33.006Z,102377.89
2019-02-23T11:58:04.347Z,102377.06
2019-02-23T12:00:35.829Z,102385.08
2019-02-23T12:03:07.555Z,102380.22
2019-02-23T12:05:38.910Z,102379.43
2019-02-23T12:08:10.467Z,102378.66
2019-02-23T12:10:42.114Z,102392.09
2019-02-23T12:13:13.364Z,102387.22
2019-02-23T12:15:44.709Z,102395.39
2019-02-23T12:18:16.258Z,102396.71
2019-02-23T12:20:47.820Z,102404.52
2019-02-23T12:23:20.278Z,102402.78
2019-02-23T12:25:52.552Z,102400.19
2019-02-23T12:28:24.116Z,102408.50
2019-02-23T12:30:55.347Z,102403.61
2019-02-23T12:33:26.801Z,102394.57
2019-02-23T12:35:58.148Z,102413.73
2019-02-23T12:38:29.653Z,102416.22
2019-02-23T12:41:01.258Z,102411.93
2019-02-23T12:43:32.807Z,102415.44
2019-02-23T12:46:04.150Z,102413.62
2019-02-23T12:48:35.923Z,102416.48
2019-02-23T12:51:07.259Z,102418.06
2019-02-23T12:53:39.867Z,102422.89
2019-02-23T12:56:11.588Z,102435.30
2019-02-23T12:58:43.247Z,102424.64
2019-02-23T13:01:14.821Z,102440.58
2019-02-23T13:03:46.770Z,102426.88
2019-02-23T13:06:18.000Z,102434.57
2019-02-23T13:09:21.506Z,102425.91
2019-02-23T13:12:04.835Z,102426.27
2019-02-23T13:14:39.562Z,102427.12
2019-02-23T13:17:19.855Z,102428.05
2019-02-23T13:19:57.353Z,102422.89
2019-02-23T13:22:44.677Z,102422.01
2019-02-23T13:25:31.238Z,102438.46
2019-02-23T13:28:09.042Z,102427.20
2019-02-23T13:30:55.640Z,102425.09
2019-02-23T13:33:32.826Z,102439.88
2019-02-23T13:36:25.579Z,102440.09
2019-02-23T13:39:12.385Z,102440.23
2019-02-23T13:41:53.261Z,102444.47
2019-02-23T13:44:53.846Z,102440.45
2019-02-23T13:47:45.717Z,102443.37
2019-02-23T13:50:29.674Z,102447.36
2019-02-23T13:53:32.038Z,102440.16
2019-02-23T13:56:14.662Z,102455.93
2019-02-23T13:58:54.218Z,102453.44
2019-02-23T14:01:32.810Z,102459.00
2019-02-23T14:04:07.429Z,102451.73
2019-02-23T14:06:47.993Z,102456.34
2019-02-23T14:09:55.624Z,102466.09
2019-02-23T14:12:30.622Z,102469.39
2019-02-23T14:15:17.844Z,102464.28
2019-02-23T14:17:55.441Z,102474.64
2019-02-23T14:20:38.791Z,102471.48
2019-02-23T14:23:36.535Z,102472.17
2019-02-23T14:26:11.274Z,102471.64
2019-02-23T14:29:09.565Z,102466.98
2019-02-23T14:31:54.514Z,102469.52
2019-02-23T14:34:35.080Z,102474.91
2019-02-23T14:37:15.703Z,102478.96
2019-02-23T14:40:02.883Z,102479.47
2019-02-23T14:42:56.936Z,102483.08
2019-02-23T14:45:43.340Z,102476.20
2019-02-23T14:48:35.168Z,102478.44
2019-02-23T14:51:35.617Z,102485.33
2019-02-23T14:54:13.306Z,102488.37
2019-02-23T14:57:04.446Z,102484.41
2019-02-23T14:59:54.488Z,102491.88
2019-02-23T15:02:35.159Z,102491.30
2019-02-23T15:05:21.654Z,102495.84
2019-02-23T15:08:17.587Z,102499.41
2019-02-23T15:10:58.465Z,102497.13
2019-02-23T15:13:33.464Z,102496.00
2019-02-23T15:16:28.324Z,102500.70
2019-02-23T15:19:22.978Z,102519.61
2019-02-23T15:22:25.145Z,102524.79
2019-02-23T15:25:19.765Z,102521.36
2019-02-23T15:28:06.142Z,102533.42
2019-02-23T15:30:43.855Z,102533.17
2019-02-23T15:33:24.709Z,102535.23
2019-02-23T15:36:02.417Z,102538.78
2019-02-23T15:38:55.282Z,102533.96
2019-02-23T15:41:42.374Z,102542.66
2019-02-23T15:44:36.051Z,102546.04
2019-02-23T15:47:46.104Z,102550.34
2019-02-23T15:50:17.716Z,102562.27
2019-02-23T15:52:50.234Z,102558.27
2019-02-23T15:55:26.004Z,102561.67
2019-02-23T15:57:54.883Z,102569.25
2019-02-23T16:00:26.444Z,102570.30
2019-02-23T16:02:58.135Z,102567.16
2019-02-23T16:05:29.741Z,102573.91
2019-02-23T16:08:00.991Z,102584.27
2019-02-23T16:10:32.536Z,102582.05
2019-02-23T16:13:03.875Z,102594.23
2019-02-23T16:15:35.034Z,102581.96
2019-02-23T16:18:06.475Z,102582.46
2019-02-23T16:20:37.932Z,102586.86
2019-02-23T16:23:09.561Z,102578.58
2019-02-23T16:25:41.144Z,102587.94
2019-02-23T16:28:12.948Z,102589.20
2019-02-23T16:30:44.236Z,102591.89
2019-02-23T16:33:15.692Z,102592.37
2019-02-23T16:35:47.243Z,102593.53
2019-02-23T16:38:18.793Z,102593.92
2019-02-23T16:40:50.447Z,102597.30
2019-02-23T16:43:22.211Z,102594.12
2019-02-23T16:45:54.373Z,102601.41
2019-02-23T16:48:25.926Z,102602.30
2019-02-23T16:50:57.382Z,102607.36
2019-02-23T16:53:29.150Z,102602.87
2019-02-23T16:56:00.794Z,102610.48
2019-02-23T16:58:31.350Z,102604.80
2019-02-23T17:01:04.289Z,102652.67
2019-02-23T17:03:35.475Z,102608.78
2019-02-23T17:06:07.095Z,102611.34
2019-02-23T17:08:38.658Z,102608.58
2019-02-23T17:11:09.999Z,102610.45
2019-02-23T17:13:41.555Z,102609.97
2019-02-23T17:16:12.926Z,102607.88
2019-02-23T17:18:44.452Z,102605.87
2019-02-23T17:21:16.004Z,102610.65
2019-02-23T17:23:47.146Z,102608.97
2019-02-23T17:26:18.709Z,102598.73
2019-02-23T17:28:50.002Z,102599.52
2019-02-23T17:31:23.249Z,102605.59
2019-02-23T17:33:55.418Z,102597.41
2019-02-23T17:36:26.753Z,102594.00
2019-02-23T17:38:58.208Z,102595.11
2019-02-23T17:41:29.553Z,102602.02
2019-02-23T17:44:01.102Z,102600.31
2019-02-23T17:46:32.465Z,102604.61
2019-02-23T17:49:03.904Z,102603.58
2019-02-23T17:51:35.253Z,102601.30
2019-02-23T17:54:08.274Z,102609.47
2019-02-23T17:56:39.473Z,102614.23
2019-02-23T17:59:10.829Z,102604.37
2019-02-23T18:01:42.492Z,102613.72
2019-02-23T18:04:13.731Z,102610.84
2019-02-23T18:06:45.084Z,102612.79
2019-02-23T18:09:16.522Z,102608.95
2019-02-23T18:11:48.208Z,102610.02
2019-02-23T18:14:19.633Z,102605.11
2019-02-23T18:16:51.083Z,102609.87
2019-02-23T18:19:22.533Z,102609.50
2019-02-23T18:21:54.594Z,102607.80
2019-02-23T18:24:26.256Z,102613.86
2019-02-23T18:26:57.816Z,102599.67
2019-02-23T18:29:29.563Z,102610.34
2019-02-23T18:32:01.429Z,102605.59
2019-02-23T18:34:32.679Z,102607.17
2019-02-23T18:37:04.235Z,102604.69
2019-02-23T18:39:35.868Z,102608.78
2019-02-23T18:42:07.319Z,102607.37
2019-02-23T18:44:38.778Z,102613.66
2019-02-23T18:47:11.354Z,102614.06
2019-02-23T18:49:43.008Z,102614.84
2019-02-23T18:52:14.756Z,102611.16
2019-02-23T18:54:46.369Z,102613.45
2019-02-23T18:57:20.119Z,102614.46
2019-02-23T18:59:51.813Z,102607.45
2019-02-23T19:02:23.791Z,102605.91
2019-02-23T19:04:55.928Z,102616.82
2019-02-23T19:07:27.556Z,102617.70
2019-02-23T19:09:59.211Z,102610.32
2019-02-23T19:12:31.089Z,102611.98
2019-02-23T19:15:02.636Z,102615.34
2019-02-23T19:17:34.313Z,102618.92
2019-02-23T19:20:11.677Z,102624.45
2019-02-23T19:22:44.772Z,102626.86
2019-02-23T19:25:16.207Z,102627.32
2019-02-23T19:27:49.478Z,102631.33
2019-02-23T19:30:20.847Z,102630.07
2019-02-23T19:32:52.434Z,102625.33
2019-02-23T19:35:24.383Z,102623.27
2019-02-23T19:37:55.819Z,102634.20
2019-02-23T19:40:27.560Z,102633.74
2019-02-23T19:42:59.028Z,102627.31
2019-02-23T19:45:30.572Z,102622.59
2019-02-23T19:48:02.050Z,102626.37
2019-02-23T19:50:36.858Z,102621.86
2019-02-23T19:53:08.561Z,102627.64
2019-02-23T19:55:39.856Z,102626.59
2019-02-23T19:58:12.125Z,102627.91
2019-02-23T20:00:43.577Z,102619.69
2019-02-23T20:03:15.635Z,102614.58
2019-02-23T20:05:47.095Z,102623.05
2019-02-23T20:08:18.537Z,102623.56
2019-02-23T20:10:50.191Z,102631.13
2019-02-23T20:13:21.550Z,102624.97
2019-02-23T20:15:53.094Z,102632.90
2019-02-23T20:18:24.487Z,102637.34
2019-02-23T20:20:57.735Z,102640.53
2019-02-23T20:23:29.182Z,102634.72
2019-02-23T20:26:00.777Z,102641.75
2019-02-23T20:28:32.606Z,102641.47
2019-02-23T20:31:03.916Z,102641.62
2019-02-23T20:33:35.630Z,102643.22
2019-02-23T20:36:06.971Z,102639.97
2019-02-23T20:38:39.626Z,102645.87
2019-02-23T20:41:10.975Z,102641.85
2019-02-23T20:43:43.452Z,102638.27
2019-02-23T20:46:16.234Z,102640.11
2019-02-23T20:48:47.989Z,102648.61
2019-02-23T20:51:19.451Z,102648.58
2019-02-23T20:53:51.108Z,102643.56
2019-02-23T20:56:22.442Z,102653.21
2019-02-23T20:58:54.031Z,102648.30
2019-02-23T21:01:25.553Z,102652.94
2019-02-23T21:03:57.715Z,102646.24
2019-02-23T21:06:29.061Z,102657.91
2019-02-23T21:09:00.509Z,102658.98
2019-02-23T21:11:33.695Z,102656.16
2019-02-23T21:14:05.363Z,102657.88
2019-02-23T21:16:36.815Z,102666.63
2019-02-23T21:19:08.442Z,102659.81
2019-02-23T21:21:40.148Z,102663.00
2019-02-23T21:24:12.016Z,102659.41
2019-02-23T21:26:43.647Z,102658.56
2019-02-23T21:29:16.173Z,102662.48
2019-02-23T21:31:48.884Z,102661.75
2019-02-23T21:34:20.758Z,102663.17
2019-02-23T21:36:52.088Z,102672.48
2019-02-23T21:39:23.446Z,102668.25
2019-02-23T21:41:54.994Z,102671.28
2019-02-23T21:44:26.537Z,102660.50
2019-02-23T21:46:58.121Z,102661.91
2019-02-23T21:49:29.548Z,102658.81
2019-02-23T21:52:01.010Z,102654.44
2019-02-23T21:54:32.755Z,102654.57
2019-02-23T21:57:04.301Z,102651.66
2019-02-23T21:59:35.964Z,102652.60
2019-02-23T22:02:07.716Z,102658.61
2019-02-23T22:04:39.144Z,102649.53
2019-02-23T22:07:10.925Z,102658.00
2019-02-23T22:09:42.375Z,102659.22
2019-02-23T22:12:14.885Z,102663.89
2019-02-23T22:14:46.414Z,102661.88
2019-02-23T22:17:18.057Z,102663.20
2019-02-23T22:19:49.516Z,102655.58
2019-02-23T22:22:22.300Z,102653.69
2019-02-23T22:24:53.852Z,102657.88
2019-02-23T22:27:31.095Z,102657.11
2019-02-23T22:29:58.382Z,102654.41
2019-02-23T22:32:30.063Z,102653.73
2019-02-23T22:35:01.494Z,102655.98
2019-02-23T22:37:33.604Z,102654.34
2019-02-23T22:40:06.433Z,102657.69
2019-02-23T22:42:37.578Z,102662.25
2019-02-23T22:45:08.946Z,102665.83
2019-02-23T22:47:40.377Z,102654.69
2019-02-23T22:50:11.744Z,102652.77
2019-02-23T22:52:43.686Z,102658.81
2019-02-23T22:55:14.930Z,102657.39
2019-02-23T22:57:46.583Z,102658.14
2019-02-23T23:00:19.779Z,102658.20
2019-02-23T23:02:54.206Z,102660.70
2019-02-23T23:05:25.853Z,102651.89
2019-02-23T23:07:57.195Z,102658.23
2019-02-23T23:10:28.854Z,102656.12
2019-02-23T23:13:00.205Z,102657.36
2019-02-23T23:15:31.857Z,102654.09
2019-02-23T23:18:03.207Z,102648.33
2019-02-23T23:20:34.861Z,102646.67
2019-02-23T23:23:06.306Z,102651.77
2019-02-23T23:25:37.859Z,102661.96
2019-02-23T23:28:09.106Z,102660.89
2019-02-23T23:30:40.762Z,102660.45
2019-02-23T23:33:12.208Z,102664.63
2019-02-23T23:35:43.664Z,102664.20
2019-02-23T23:38:14.914Z,102659.45
2019-02-23T23:40:46.356Z,102657.88
2019-02-23T23:43:17.705Z,102656.16
2019-02-23T23:45:49.260Z,102653.77
2019-02-23T23:48:20.706Z,102650.42
2019-02-23T23:50:52.160Z,102652.75
2019-02-23T23:53:23.654Z,102641.30
2019-02-23T23:55:54.861Z,102634.95
2019-02-23T23:58:26.097Z,102637.01
